createdAt,value
2019-05-01T00:03:58.198Z,6.93
2019-05-01T00:09:14.839Z,6.10
2019-05-01T00:14:30.846Z,7.60
2019-05-01T00:19:46.512Z,6.53
2019-05-01T00:25:02.342Z,6.83
2019-05-01T00:30:29.841Z,7.33
2019-05-01T00:35:38.413Z,7.37
2019-05-01T00:40:54.002Z,7.47
2019-05-01T00:46:10.277Z,7.17
2019-05-01T00:51:26.125Z,6.37
2019-05-01T00:57:10.005Z,7.43
2019-05-01T01:02:32.686Z,7.00
2019-05-01T01:07:48.754Z,7.20
2019-05-01T01:13:04.406Z,7.60
2019-05-01T01:18:22.072Z,7.40
2019-05-01T01:23:38.450Z,7.03
2019-05-01T01:28:54.687Z,7.43
2019-05-01T01:34:10.591Z,7.87
2019-05-01T01:39:26.607Z,8.23
2019-05-01T01:44:57.815Z,8.27
2019-05-01T01:50:13.572Z,8.07
2019-05-01T01:55:30.200Z,8.50
2019-05-01T02:01:09.489Z,8.00
2019-05-01T02:06:25.910Z,8.60
2019-05-01T02:11:42.037Z,7.23
2019-05-01T02:16:57.733Z,7.43
2019-05-01T02:22:13.598Z,8.17
2019-05-01T02:27:37.141Z,7.73
2019-05-01T02:32:54.714Z,7.90
2019-05-01T02:38:11.553Z,7.43
2019-05-01T02:43:30.080Z,7.67
2019-05-01T02:48:53.398Z,8.77
2019-05-01T02:54:09.895Z,7.23
2019-05-01T02:59:28.566Z,8.70
2019-05-01T03:04:46.007Z,7.40
2019-05-01T03:10:08.965Z,7.00
2019-05-01T03:15:24.824Z,8.53
2019-05-01T03:20:53.836Z,7.47
2019-05-01T03:26:09.854Z,6.90
2019-05-01T03:31:25.153Z,7.93
2019-05-01T03:36:41.067Z,8.37
2019-05-01T03:41:56.693Z,8.03
2019-05-01T03:47:12.343Z,8.30
2019-05-01T03:52:29.027Z,7.53
2019-05-01T03:57:44.951Z,8.03
2019-05-01T04:03:26.799Z,7.13
2019-05-01T04:08:42.616Z,7.53
2019-05-01T04:13:59.456Z,7.83
2019-05-01T04:19:16.182Z,6.77
2019-05-01T04:24:31.991Z,8.20
2019-05-01T04:30:03.463Z,7.70
2019-05-01T04:35:30.781Z,7.73
2019-05-01T04:40:47.185Z,7.57
2019-05-01T04:46:03.794Z,8.17
2019-05-01T04:51:21.039Z,8.00
2019-05-01T04:56:37.366Z,7.60
2019-05-01T05:01:59.963Z,7.93
2019-05-01T05:07:15.932Z,7.20
2019-05-01T05:13:03.278Z,7.33
2019-05-01T05:18:20.380Z,7.60
2019-05-01T05:23:36.850Z,7.77
2019-05-01T05:28:54.381Z,7.87
2019-05-01T05:34:13.043Z,7.50
2019-05-01T05:39:36.174Z,7.97
2019-05-01T05:44:51.594Z,7.77
2019-05-01T05:50:09.837Z,8.33
2019-05-01T05:55:33.007Z,8.20
2019-05-01T06:01:16.363Z,8.27
2019-05-01T06:06:53.804Z,8.83
2019-05-01T06:12:17.573Z,7.93
2019-05-01T06:18:04.377Z,9.23
2019-05-01T06:23:52.629Z,8.60
2019-05-01T06:29:09.387Z,8.53
2019-05-01T06:34:28.753Z,9.30
2019-05-01T06:39:47.900Z,9.67
2019-05-01T06:45:07.215Z,9.37
2019-05-01T06:50:37.026Z,9.37
2019-05-01T06:55:51.562Z,9.27
2019-05-01T07:01:09.238Z,10.77
2019-05-01T07:06:25.892Z,10.17
2019-05-01T07:11:47.511Z,10.20
2019-05-01T07:17:13.632Z,10.17
2019-05-01T07:22:31.810Z,11.17
2019-05-01T07:27:53.864Z,9.53
2019-05-01T07:33:12.086Z,9.87
2019-05-01T07:38:26.326Z,10.87
2019-05-01T07:44:01.457Z,11.30
2019-05-01T07:49:21.939Z,11.03
2019-05-01T07:54:42.367Z,9.93
2019-05-01T07:59:58.410Z,9.60
2019-05-01T08:05:13.926Z,10.77
2019-05-01T08:10:31.442Z,9.90
2019-05-01T08:15:47.740Z,9.87
2019-05-01T08:21:16.205Z,10.13
2019-05-01T08:26:32.477Z,10.67
2019-05-01T08:32:05.692Z,9.90
2019-05-01T08:37:22.620Z,10.37
2019-05-01T08:42:42.520Z,9.23
2019-05-01T08:48:06.470Z,9.30
2019-05-01T08:53:23.354Z,9.07
2019-05-01T08:58:39.225Z,10.30
2019-05-01T09:03:55.702Z,8.67
2019-05-01T09:09:11.519Z,9.23
2019-05-01T09:14:29.798Z,8.67
2019-05-01T09:19:45.836Z,9.10
2019-05-01T09:25:01.897Z,7.90
2019-05-01T09:30:29.937Z,8.37
2019-05-01T09:35:47.438Z,8.43
2019-05-01T09:41:03.005Z,8.27
2019-05-01T09:46:18.956Z,8.20
2019-05-01T09:51:52.774Z,7.40
2019-05-01T09:57:08.333Z,7.00
2019-05-01T10:02:23.971Z,6.47
2019-05-01T10:07:39.807Z,6.27
2019-05-01T10:12:55.789Z,5.97
2019-05-01T10:18:11.427Z,6.10
2019-05-01T10:23:29.034Z,6.30
2019-05-01T10:29:25.993Z,7.60
2019-05-01T10:34:49.949Z,7.33
2019-05-01T10:40:07.026Z,6.13
2019-05-01T10:45:22.850Z,6.00
2019-05-01T10:50:38.761Z,6.37
2019-05-01T10:55:59.763Z,6.10
2019-05-01T11:01:21.183Z,5.63
2019-05-01T11:06:36.808Z,5.67
2019-05-01T11:11:52.472Z,5.87
2019-05-01T11:17:08.538Z,5.63
2019-05-01T11:22:24.718Z,5.60
2019-05-01T11:27:40.189Z,5.50
2019-05-01T11:33:17.705Z,4.90
2019-05-01T11:38:54.749Z,5.30
2019-05-01T11:44:10.836Z,5.57
2019-05-01T11:49:26.831Z,4.57
2019-05-01T11:54:44.402Z,4.33
2019-05-01T12:00:08.271Z,4.67
2019-05-01T12:05:27.985Z,4.77
2019-05-01T12:10:43.635Z,4.87
2019-05-01T12:16:24.116Z,4.27
2019-05-01T12:21:47.481Z,4.67
2019-05-01T12:27:03.550Z,4.57
2019-05-01T12:32:19.280Z,4.23
2019-05-01T12:37:42.426Z,4.30
2019-05-01T12:43:01.579Z,4.40
2019-05-01T12:48:17.211Z,4.20
2019-05-01T12:54:02.207Z,4.27
2019-05-01T12:59:18.032Z,4.00
2019-05-01T13:04:33.892Z,4.37
2019-05-01T13:09:49.438Z,4.23
2019-05-01T13:15:05.524Z,4.10
2019-05-01T13:20:21.583Z,4.93
2019-05-01T13:25:37.473Z,3.73
2019-05-01T13:31:01.442Z,4.10
2019-05-01T13:36:17.806Z,4.23
2019-05-01T13:41:33.245Z,3.90
2019-05-01T13:46:49.999Z,3.90
2019-05-01T13:52:05.537Z,3.17
2019-05-01T13:57:21.741Z,4.07
2019-05-01T14:02:37.450Z,3.70
2019-05-01T14:07:52.992Z,3.37
2019-05-01T14:13:08.891Z,3.93
2019-05-01T14:18:24.546Z,3.63
2019-05-01T14:23:58.130Z,3.57
2019-05-01T14:29:13.630Z,3.40
2019-05-01T14:34:29.672Z,3.63
2019-05-01T14:39:45.726Z,3.10
2019-05-01T14:45:01.629Z,3.60
2019-05-01T14:50:18.977Z,3.10
2019-05-01T14:55:34.541Z,3.93
2019-05-01T15:00:50.298Z,3.40
2019-05-01T15:06:06.637Z,3.63
2019-05-01T15:11:23.049Z,2.80
2019-05-01T15:16:47.014Z,3.23
2019-05-01T15:22:02.970Z,3.13
2019-05-01T15:27:18.798Z,3.00
2019-05-01T15:32:34.473Z,3.20
2019-05-01T15:37:56.762Z,3.03
2019-05-01T15:43:26.421Z,3.43
2019-05-01T15:48:42.167Z,3.30
2019-05-01T15:53:58.218Z,2.90
2019-05-01T15:59:14.057Z,2.70
2019-05-01T16:04:30.039Z,3.13
2019-05-01T16:09:45.660Z,3.43
2019-05-01T16:15:01.579Z,3.07
2019-05-01T16:20:17.442Z,3.10
2019-05-01T16:25:33.354Z,3.30
2019-05-01T16:30:49.257Z,3.47
2019-05-01T16:36:05.358Z,3.23
2019-05-01T16:41:20.865Z,3.03
2019-05-01T16:46:37.096Z,3.00
2019-05-01T16:51:52.926Z,2.73
2019-05-01T16:57:11.455Z,2.97
2019-05-01T17:02:39.388Z,2.50
2019-05-01T17:08:20.192Z,2.70
2019-05-01T17:13:36.101Z,2.43
2019-05-01T17:18:51.997Z,2.83
2019-05-01T17:24:07.900Z,2.83
2019-05-01T17:29:24.951Z,2.40
2019-05-01T17:34:43.722Z,2.53
2019-05-01T17:40:02.281Z,2.70
2019-05-01T17:45:18.292Z,2.53
2019-05-01T17:50:35.581Z,2.70
2019-05-01T18:01:27.947Z,2.20
2019-05-01T18:06:46.677Z,2.53
2019-05-01T18:12:02.913Z,2.03
2019-05-01T18:17:18.814Z,2.57
2019-05-01T18:23:08.422Z,2.87
2019-05-01T18:28:40.512Z,2.90
2019-05-01T18:33:56.980Z,3.00
2019-05-01T18:39:25.720Z,3.00
2019-05-01T18:44:42.569Z,2.70
2019-05-01T18:49:56.672Z,3.03
2019-05-01T18:55:12.247Z,3.40
2019-05-01T19:00:31.170Z,2.90
2019-05-01T19:05:48.187Z,3.07
2019-05-01T19:11:12.404Z,3.40
2019-05-01T19:16:22.031Z,2.73
2019-05-01T19:21:41.804Z,2.93
2019-05-01T19:26:55.641Z,3.47
2019-05-01T19:32:12.943Z,3.00
2019-05-01T19:37:30.976Z,3.47
2019-05-01T19:42:46.911Z,2.80
2019-05-01T19:48:03.096Z,2.83
2019-05-01T19:53:19.428Z,3.10
2019-05-01T19:58:39.539Z,2.70
2019-05-01T20:03:55.555Z,2.80
2019-05-01T20:09:15.947Z,2.97
2019-05-01T20:14:38.448Z,3.07
2019-05-01T20:20:03.384Z,2.90
2019-05-01T20:25:29.703Z,3.10
2019-05-01T20:30:45.720Z,3.30
2019-05-01T20:36:05.224Z,3.00
2019-05-01T20:41:21.176Z,3.20
2019-05-01T20:46:37.412Z,3.10
2019-05-01T20:51:53.105Z,3.07
2019-05-01T20:57:20.849Z,3.03
2019-05-01T21:04:10.092Z,3.20
2019-05-01T21:09:22.310Z,2.67
2019-05-01T21:14:38.572Z,3.23
2019-05-01T21:19:58.164Z,3.40
2019-05-01T21:25:25.355Z,2.87
2019-05-01T21:30:47.540Z,2.90
2019-05-01T21:36:06.144Z,3.17
2019-05-01T21:41:22.444Z,3.13
2019-05-01T21:46:44.404Z,3.80
2019-05-01T21:52:07.345Z,3.37
2019-05-01T21:57:29.603Z,3.30
2019-05-01T22:02:46.358Z,2.80
2019-05-01T22:08:03.714Z,3.20
2019-05-01T22:13:20.346Z,3.20
2019-05-01T22:18:49.444Z,3.00
2019-05-01T22:24:25.646Z,3.10
2019-05-01T22:29:59.908Z,3.07
2019-05-01T22:35:25.054Z,3.23
2019-05-01T22:41:04.771Z,3.60
2019-05-01T22:46:17.009Z,2.83
2019-05-01T22:51:33.042Z,3.17
2019-05-01T22:56:48.871Z,3.37
2019-05-01T23:02:14.281Z,3.57
2019-05-01T23:07:29.760Z,3.73
2019-05-01T23:12:45.406Z,3.27
2019-05-01T23:18:01.249Z,3.50
2019-05-01T23:23:17.372Z,3.90
2019-05-01T23:28:34.907Z,3.43
2019-05-01T23:33:51.872Z,3.60
2019-05-01T23:39:08.329Z,3.40
2019-05-01T23:44:24.350Z,3.53
2019-05-01T23:49:40.025Z,3.60
2019-05-01T23:54:55.797Z,3.60
